Station: Blackall  

  Atmospheric Gas Attenuation - ITU Rec 676-11   ----------------- dB/100km -----------------
Date Time Temp RH % AH g/m3 Dew Point Wind Direction Speed kph Gust kph Barometer mB Rainfall Since 9am 24GHz 47GHz 76GHz 122GHz 134GHz 241GHz
05/05 08:40 19.7 77 13.07 15.6 11 13 1017.9 0 28.8 31.7 55.1 145.3 150.6 521.7
05/05 08:30 19.4 79 13.18 15.7 13 15 1018 0 29.0 32.0 55.8 147.2 152.8 529.2
05/05 08:20 19.2 79 13.03 15.5 11 13 1018 0 28.7 31.8 55.3 145.8 151.0 523.1
05/05 08:10 19.1 79 12.95 15.4 9 11 1018.1 0 28.6 31.7 55.0 145.1 150.1 519.8
05/05 08:00 18.9 79 12.8 15.2 11 15 1018.2 0 28.3 31.5 54.5 143.8 148.4 513.8
05/05 07:50 19.1 79 12.95 15.4 11 11 1017.9 0 28.6 31.7 55.0 145.1 150.1 519.8
05/05 07:40 18.9 79 12.8 15.2 9 11 1017.6 0 28.3 31.5 54.5 143.7 148.3 513.5
05/05 07:30 18.8 81 13.04 15.5 11 17 1017.7 0 28.8 31.9 55.6 146.7 151.9 526.2
05/05 07:20 18.4 82 12.9 15.3 13 15 1017.6 0 28.5 31.8 55.3 145.8 150.7 521.9
05/05 07:10 18.3 83 12.98 15.4 9 11 1017.6 0 28.7 32.0 55.7 146.9 152.1 526.6
05/05 07:00 18.2 83 12.9 15.3 9 13 1017.5 0 28.5 31.9 55.4 146.2 151.1 523.2
05/05 06:50 18.2 82 12.74 15.1 11 13 1017.3 0 28.2 31.6 54.7 144.3 148.8 515.1
05/05 06:40 18.3 81 12.66 15 11 13 1017.3 0 28.0 31.4 54.3 143.1 147.5 510.5
05/05 06:30 18.4 80 12.58 14.9 9 15 1017.3 0 27.8 31.3 53.9 142.0 146.1 505.8
05/05 06:20 18.5 80 12.66 15 13 17 1017.2 0 28.0 31.4 54.2 142.8 147.1 509.1
05/05 06:10 18.5 80 12.66 15 17 20 1017.2 0 28.0 31.4 54.2 142.8 147.1 509.1
05/05 06:00 18.5 80 12.66 15 15 22 1017.2 0 28.0 31.4 54.2 142.8 147.1 509.1
05/05 05:50 18.6 80 12.73 15.1 17 22 1017.1 0 28.1 31.4 54.4 143.4 147.8 511.9
05/05 05:40 18.5 81 12.81 15.2 13 15 1017.1 0 28.3 31.6 54.8 144.5 149.2 516.5
05/05 05:30 18.7 81 12.97 15.4 15 20 1017 0 28.6 31.8 55.4 146.0 151.1 523.1
05/05 05:20 18.6 82 13.05 15.5 13 17 1016.9 0 28.8 32.0 55.8 147.1 152.4 527.8
05/05 05:10 18.6 82 13.05 15.5 13 13 1016.8 0 28.8 32.0 55.8 147.1 152.4 527.7
05/05 05:00 18.6 81 12.89 15.3 17 24 1016.8 0 28.5 31.7 55.1 145.2 150.1 519.7
05/05 04:50 18.7 80 12.81 15.2 17 20 1016.7 0 28.3 31.5 54.6 144.1 148.7 515.0
05/05 04:40 18.9 81 13.12 15.6 17 19 1016.6 0 28.9 32.0 55.9 147.3 152.8 529.1
05/05 04:30 19.1 82 13.44 16 20 28 1016.5 0 29.6 32.5 57.1 150.6 157.0 543.7
05/05 04:20 19.2 83 13.68 16.2 19 24 1016.5 0 30.1 32.9 58.1 153.2 160.2 555.1
05/05 04:10 19.3 83 13.77 16.3 19 22 1016.5 0 30.3 33.0 58.4 154.1 161.3 559.0
05/05 04:00 19.5 84 14.1 16.7 19 28 1016.5 0 31.0 33.5 59.7 157.6 165.7 574.3
05/05 03:50 19.8 84 14.35 17 20 24 1016.5 0 31.5 33.8 60.6 160.0 168.7 584.8
05/05 03:40 20 82 14.17 16.8 19 22 1016.5 0 31.1 33.4 59.7 157.4 165.6 574.1
05/05 03:30 20.1 82 14.25 16.9 22 32 1016.5 0 31.3 33.5 59.9 158.2 166.6 577.4
05/05 03:20 20.3 81 14.24 16.9 17 17 1016.5 0 31.2 33.4 59.7 157.6 166.0 575.4
05/05 03:10 20.4 81 14.33 17 22 30 1016.5 0 31.4 33.6 60.1 158.5 167.1 579.2
05/05 03:00 20.5 80 14.23 16.9 17 26 1016.6 0 31.2 33.3 59.5 157.1 165.4 573.4
05/05 02:50 20.6 80 14.32 17 15 17 1016.6 0 31.4 33.5 59.9 158.0 166.5 577.2
05/05 02:40 20.6 79 14.14 16.8 22 28 1016.6 0 31.0 33.1 59.1 155.9 163.9 568.1
05/05 02:30 20.7 79 14.22 16.9 19 24 1016.6 0 31.2 33.3 59.3 156.6 164.8 571.4
05/05 02:20 20.9 78 14.2 16.9 20 24 1016.7 0 31.1 33.1 59.1 156.0 164.1 569.0
05/05 02:10 21.3 75 13.98 16.7 13 19 1016.7 0 30.6 32.6 57.8 152.6 160.1 555.1
05/05 02:00 21.5 74 13.95 16.7 17 28 1016.7 0 30.5 32.5 57.6 151.9 159.3 552.2
05/05 01:50 21.7 73 13.92 16.6 22 28 1016.8 0 30.4 32.4 57.3 151.2 158.4 549.3
05/05 01:40 21.9 72 13.89 16.6 20 24 1016.9 0 30.4 32.2 57.0 150.4 157.6 546.4
05/05 01:30 22.1 70 13.66 16.4 19 30 1017 0 29.9 31.8 55.9 147.4 154.0 533.9
05/05 01:20 22.5 68 13.58 16.3 22 26 1017 0 29.7 31.5 55.3 145.8 152.1 527.2
05/05 01:10 22.7 68 13.74 16.5 17 17 1017 0 30.0 31.7 55.8 147.2 153.9 533.6
05/05 01:00 22.7 68 13.74 16.5 17 22 1017 0 30.0 31.7 55.8 147.2 153.9 533.6
05/05 00:50 22.7 68 13.74 16.5 17 20 1017 0 30.0 31.7 55.8 147.2 153.9 533.6
05/05 00:40 22.7 68 13.74 16.5 13 17 1016.9 0 30.0 31.7 55.8 147.2 153.9 533.6
05/05 00:30 22.7 67 13.54 16.3 13 19 1016.9 0 29.6 31.3 55.0 145.0 151.1 523.9
05/05 00:20 22.8 67 13.61 16.4 15 17 1016.8 0 29.7 31.4 55.2 145.5 151.9 526.6
05/05 00:10 23 66 13.56 16.3 13 15 1016.8 0 29.6 31.3 54.8 144.6 150.8 522.8
05/05 00:00 23.2 65 13.51 16.3 19 24 1016.7 0 29.5 31.1 54.5 143.7 149.7 519.1
04/05 23:50 23.4 62 13.04 15.7 17 22 1016.8 0 28.5 30.3 52.4 138.2 143.0 495.6
04/05 23:40 23.4 57 11.99 14.4 13 17 1016.9 0 26.2 28.5 48.2 126.9 129.1 447.2
04/05 23:30 23.5 58 12.27 14.8 9 11 1016.9 0 26.8 29.0 49.2 129.7 132.6 459.4
04/05 23:20 23.6 57 12.12 14.6 9 11 1017 0 26.5 28.7 48.6 128.0 130.5 452.0
04/05 23:10 23.7 57 12.19 14.7 9 11 1017 0 26.6 28.8 48.8 128.5 131.2 454.6
04/05 23:00 23.8 56 12.05 14.5 9 11 1017.1 0 26.3 28.5 48.2 126.9 129.3 447.7
04/05 22:50 24 53 11.53 13.8 7 9 1017.2 0 25.2 27.6 46.0 121.2 122.3 423.3
04/05 22:40 24.2 52 11.44 13.7 11 11 1017.1 0 25.0 27.4 45.6 119.9 120.8 418.2
04/05 22:30 23.9 51 11.03 13.2 6 7 1017.3 0 24.2 26.9 44.2 116.2 116.1 401.8
04/05 22:20 24 50 10.88 12.9 4 6 1017.3 0 23.9 26.6 43.5 114.5 114.1 394.7
04/05 22:10 24.1 49 10.72 12.7 9 13 1017.2 0 23.5 26.4 42.9 112.8 112.0 387.3
04/05 22:00 24.7 50 11.32 13.6 9 15 1017 0 24.8 27.1 44.8 118.0 118.5 410.3
04/05 21:50 24.7 49 11.09 13.3 11 13 1016.8 0 24.3 26.7 43.9 115.6 115.7 400.2
04/05 21:40 24.2 49 10.78 12.8 9 9 1016.7 0 23.7 26.4 43.0 113.2 112.5 389.2
04/05 21:30 24.2 48 10.56 12.5 7 9 1016.7 0 23.2 26.1 42.2 111.0 109.8 379.7
04/05 21:20 24.3 48 10.62 12.6 4 6 1016.7 0 23.3 26.1 42.4 111.4 110.4 381.8
04/05 21:10 24.4 48 10.68 12.7 4 6 1016.6 0 23.4 26.2 42.5 111.9 111.0 383.9
04/05 21:00 24.4 48 10.68 12.7 7 9 1016.6 0 23.4 26.2 42.5 111.9 111.0 383.9
04/05 20:50 24.4 48 10.68 12.7 7 7 1016.6 0 23.4 26.2 42.5 111.9 111.0 383.9
04/05 20:40 24.3 48 10.62 12.6 9 11 1016.6 0 23.3 26.1 42.4 111.4 110.4 381.8
04/05 20:30 24.2 47 10.34 12.2 7 9 1016.4 0 22.7 25.7 41.4 108.8 107.1 370.2
04/05 20:20 24.5 47 10.52 12.5 6 6 1016 0 23.1 25.9 41.9 110.1 108.9 376.4
04/05 20:10 24.7 46 10.41 12.3 7 7 1015.9 0 22.9 25.7 41.4 108.7 107.2 370.7
04/05 20:00 24.1 48 10.5 12.4 11 15 1015.8 0 23.1 26.0 42.0 110.4 109.1 377.4
04/05 19:50 23.4 49 10.3 12.1 7 9 1015.5 0 22.7 25.9 41.6 109.4 107.6 371.9
04/05 19:40 23.4 49 10.3 12.1 7 7 1015.3 0 22.7 25.9 41.6 109.3 107.6 371.9
04/05 19:30 23 50 10.28 12 0 7 1015.3 0 22.7 25.9 41.7 109.7 107.9 372.9
04/05 19:20 23 51 10.48 12.3 0 0 1015.1 0 23.1 26.2 42.5 111.7 110.4 381.5
04/05 19:10 22.9 49 10.01 11.6 0 0 1014.9 0 22.1 25.6 40.7 107.1 104.7 361.6
04/05 19:00 23.5 49 10.36 12.2 0 0 1014.8 0 22.8 25.9 41.7 109.8 108.2 373.9
04/05 18:50 23.6 48 10.21 12 0 0 1014.6 0 22.5 25.6 41.1 108.1 106.2 366.9
04/05 18:40 23.9 47 10.17 11.9 4 6 1014.5 0 22.4 25.5 40.8 107.3 105.3 363.8
04/05 18:30 24.9 44 10.07 11.8 2 6 1014.3 0 22.1 25.1 39.9 105.0 102.7 355.0
04/05 18:20 25.3 41 9.6 11.1 6 6 1014.3 0 21.1 24.3 38.1 100.0 96.7 333.9
04/05 18:10 26.4 40 9.96 11.7 7 7 1014.3 0 21.8 24.5 38.8 102.0 99.5 344.0
04/05 18:00 26.9 38 9.73 11.4 7 7 1014.2 0 21.3 24.0 37.8 99.2 96.3 332.6
04/05 17:50 27.5 37 9.79 11.5 7 9 1014.1 0 21.4 24.0 37.7 99.0 96.2 332.5
04/05 17:40 28.1 36 9.84 11.6 6 6 1014 0 21.5 23.9 37.6 98.8 96.1 332.0
04/05 17:30 28.4 35 9.73 11.5 6 7 1013.9 0 21.2 23.6 37.1 97.4 94.5 326.4
04/05 17:20 28.7 34 9.61 11.3 7 9 1013.7 0 21.0 23.4 36.5 95.9 92.7 320.5
04/05 17:10 29 33 9.48 11.1 7 7 1013.7 0 20.7 23.1 36.0 94.4 91.0 314.2
04/05 17:00 29.2 33 9.58 11.3 9 15 1013.7 0 20.9 23.2 36.2 95.1 91.8 317.4
04/05 16:50 29.9 31 9.35 10.9 9 13 1013.6 0 20.4 22.7 35.1 92.2 88.5 305.8
04/05 16:40 30.7 30 9.45 11.1 4 9 1013.6 0 20.6 22.7 35.1 92.2 88.7 306.7
04/05 16:30 30.4 30 9.3 10.9 9 13 1013.5 0 20.3 22.5 34.7 91.2 87.4 302.0
04/05 16:20 29.9 31 9.35 10.9 9 11 1013.5 0 20.4 22.7 35.1 92.2 88.5 305.8
04/05 16:10 31.1 30 9.65 11.5 11 13 1013.4 0 20.9 22.8 35.6 93.5 90.5 312.7

Last Refresh: 05-May-2026 08:24:49

Bureau of Meteorology